sensor_id;sensor_type;location;lat;lon;timestamp;P1;durP1;ratioP1;P2;durP2;ratioP2
73951;SDS011;62304;47.662;18.324;2023-07-29T00:02:36;6.68;;;2.42;;
73951;SDS011;62304;47.662;18.324;2023-07-29T00:05:40;5.20;;;2.30;;
73951;SDS011;62304;47.662;18.324;2023-07-29T00:08:43;6.00;;;2.40;;
73951;SDS011;62304;47.662;18.324;2023-07-29T00:11:46;6.47;;;2.10;;
73951;SDS011;62304;47.662;18.324;2023-07-29T00:14:49;5.95;;;2.03;;
73951;SDS011;62304;47.662;18.324;2023-07-29T00:17:52;4.62;;;1.95;;
73951;SDS011;62304;47.662;18.324;2023-07-29T00:20:55;4.20;;;1.80;;
73951;SDS011;62304;47.662;18.324;2023-07-29T00:23:58;5.33;;;1.93;;
73951;SDS011;62304;47.662;18.324;2023-07-29T00:27:03;5.23;;;2.07;;
73951;SDS011;62304;47.662;18.324;2023-07-29T00:30:06;4.37;;;2.10;;
73951;SDS011;62304;47.662;18.324;2023-07-29T00:33:10;6.15;;;2.10;;
73951;SDS011;62304;47.662;18.324;2023-07-29T00:36:13;4.37;;;1.73;;
73951;SDS011;62304;47.662;18.324;2023-07-29T00:39:16;5.53;;;2.70;;
73951;SDS011;62304;47.662;18.324;2023-07-29T00:42:20;4.60;;;2.33;;
73951;SDS011;62304;47.662;18.324;2023-07-29T00:45:24;4.95;;;2.00;;
73951;SDS011;62304;47.662;18.324;2023-07-29T00:48:29;5.10;;;2.10;;
73951;SDS011;62304;47.662;18.324;2023-07-29T00:51:32;5.10;;;2.00;;
73951;SDS011;62304;47.662;18.324;2023-07-29T00:54:35;4.80;;;2.07;;
73951;SDS011;62304;47.662;18.324;2023-07-29T00:57:38;5.43;;;2.50;;
73951;SDS011;62304;47.662;18.324;2023-07-29T01:00:43;6.18;;;2.60;;
73951;SDS011;62304;47.662;18.324;2023-07-29T01:03:46;5.40;;;2.20;;
73951;SDS011;62304;47.662;18.324;2023-07-29T01:16:39;5.62;;;2.40;;
73951;SDS011;62304;47.662;18.324;2023-07-29T01:22:58;6.05;;;2.30;;
73951;SDS011;62304;47.662;18.324;2023-07-29T01:26:02;5.23;;;2.30;;
73951;SDS011;62304;47.662;18.324;2023-07-29T01:29:06;5.90;;;2.23;;
73951;SDS011;62304;47.662;18.324;2023-07-29T01:32:14;5.70;;;2.25;;
73951;SDS011;62304;47.662;18.324;2023-07-29T01:38:49;5.18;;;2.33;;
73951;SDS011;62304;47.662;18.324;2023-07-29T01:41:55;4.53;;;2.17;;
73951;SDS011;62304;47.662;18.324;2023-07-29T01:44:58;5.47;;;2.20;;
73951;SDS011;62304;47.662;18.324;2023-07-29T01:48:02;6.68;;;2.60;;
73951;SDS011;62304;47.662;18.324;2023-07-29T01:51:06;5.85;;;2.40;;
73951;SDS011;62304;47.662;18.324;2023-07-29T01:54:09;6.50;;;2.22;;
73951;SDS011;62304;47.662;18.324;2023-07-29T01:57:16;6.50;;;2.27;;
73951;SDS011;62304;47.662;18.324;2023-07-29T02:00:19;5.80;;;2.00;;
73951;SDS011;62304;47.662;18.324;2023-07-29T02:03:22;5.93;;;2.08;;
73951;SDS011;62304;47.662;18.324;2023-07-29T02:06:26;6.43;;;2.58;;
73951;SDS011;62304;47.662;18.324;2023-07-29T02:09:30;5.40;;;2.60;;
73951;SDS011;62304;47.662;18.324;2023-07-29T02:12:34;5.40;;;2.10;;
73951;SDS011;62304;47.662;18.324;2023-07-29T02:15:37;5.57;;;2.53;;
73951;SDS011;62304;47.662;18.324;2023-07-29T02:18:40;5.37;;;2.53;;
73951;SDS011;62304;47.662;18.324;2023-07-29T02:21:43;4.90;;;2.00;;
73951;SDS011;62304;47.662;18.324;2023-07-29T02:24:46;6.53;;;2.50;;
73951;SDS011;62304;47.662;18.324;2023-07-29T02:27:49;6.60;;;2.60;;
73951;SDS011;62304;47.662;18.324;2023-07-29T02:34:25;5.10;;;2.45;;
73951;SDS011;62304;47.662;18.324;2023-07-29T02:37:28;5.45;;;2.40;;
73951;SDS011;62304;47.662;18.324;2023-07-29T02:40:32;6.20;;;2.40;;
73951;SDS011;62304;47.662;18.324;2023-07-29T02:43:35;7.90;;;2.60;;
73951;SDS011;62304;47.662;18.324;2023-07-29T02:46:38;7.63;;;2.77;;
73951;SDS011;62304;47.662;18.324;2023-07-29T02:49:42;7.03;;;2.92;;
73951;SDS011;62304;47.662;18.324;2023-07-29T02:52:45;7.90;;;3.08;;
73951;SDS011;62304;47.662;18.324;2023-07-29T02:55:53;7.15;;;2.80;;
73951;SDS011;62304;47.662;18.324;2023-07-29T02:58:56;6.60;;;3.53;;
73951;SDS011;62304;47.662;18.324;2023-07-29T03:02:00;8.00;;;3.20;;
73951;SDS011;62304;47.662;18.324;2023-07-29T03:05:02;8.32;;;3.40;;
73951;SDS011;62304;47.662;18.324;2023-07-29T03:08:06;7.43;;;3.10;;
73951;SDS011;62304;47.662;18.324;2023-07-29T03:11:10;7.63;;;3.40;;
73951;SDS011;62304;47.662;18.324;2023-07-29T03:14:15;7.33;;;3.40;;
73951;SDS011;62304;47.662;18.324;2023-07-29T03:17:18;6.85;;;3.00;;
73951;SDS011;62304;47.662;18.324;2023-07-29T03:20:22;6.72;;;3.47;;
73951;SDS011;62304;47.662;18.324;2023-07-29T03:23:25;10.25;;;3.53;;
73951;SDS011;62304;47.662;18.324;2023-07-29T03:26:29;6.93;;;3.40;;
73951;SDS011;62304;47.662;18.324;2023-07-29T03:29:31;7.63;;;3.27;;
73951;SDS011;62304;47.662;18.324;2023-07-29T03:32:35;7.00;;;3.70;;
73951;SDS011;62304;47.662;18.324;2023-07-29T03:35:37;6.50;;;3.10;;
73951;SDS011;62304;47.662;18.324;2023-07-29T03:38:41;8.43;;;3.47;;
73951;SDS011;62304;47.662;18.324;2023-07-29T03:41:44;6.50;;;3.23;;
73951;SDS011;62304;47.662;18.324;2023-07-29T03:44:47;7.03;;;3.30;;
73951;SDS011;62304;47.662;18.324;2023-07-29T03:47:50;8.63;;;3.15;;
73951;SDS011;62304;47.662;18.324;2023-07-29T03:50:53;7.25;;;2.75;;
73951;SDS011;62304;47.662;18.324;2023-07-29T03:53:57;9.10;;;3.12;;
73951;SDS011;62304;47.662;18.324;2023-07-29T03:57:00;6.83;;;3.40;;
73951;SDS011;62304;47.662;18.324;2023-07-29T04:00:03;9.13;;;3.53;;
73951;SDS011;62304;47.662;18.324;2023-07-29T04:03:16;6.97;;;3.22;;
73951;SDS011;62304;47.662;18.324;2023-07-29T04:06:19;6.60;;;3.42;;
73951;SDS011;62304;47.662;18.324;2023-07-29T04:09:22;7.05;;;2.80;;
73951;SDS011;62304;47.662;18.324;2023-07-29T04:12:26;6.40;;;3.03;;
73951;SDS011;62304;47.662;18.324;2023-07-29T04:15:29;6.20;;;3.40;;
73951;SDS011;62304;47.662;18.324;2023-07-29T04:18:33;7.57;;;3.10;;
73951;SDS011;62304;47.662;18.324;2023-07-29T04:21:39;6.70;;;3.33;;
73951;SDS011;62304;47.662;18.324;2023-07-29T04:24:42;8.93;;;3.72;;
73951;SDS011;62304;47.662;18.324;2023-07-29T04:27:45;9.87;;;3.37;;
73951;SDS011;62304;47.662;18.324;2023-07-29T04:30:48;7.50;;;3.40;;
73951;SDS011;62304;47.662;18.324;2023-07-29T04:33:51;7.30;;;3.25;;
73951;SDS011;62304;47.662;18.324;2023-07-29T04:36:54;8.18;;;3.50;;
73951;SDS011;62304;47.662;18.324;2023-07-29T04:39:57;7.22;;;3.17;;
73951;SDS011;62304;47.662;18.324;2023-07-29T04:43:00;7.63;;;3.30;;
73951;SDS011;62304;47.662;18.324;2023-07-29T04:46:07;5.97;;;2.90;;
73951;SDS011;62304;47.662;18.324;2023-07-29T04:49:11;5.93;;;3.00;;
73951;SDS011;62304;47.662;18.324;2023-07-29T04:52:14;8.80;;;3.35;;
73951;SDS011;62304;47.662;18.324;2023-07-29T04:55:18;6.78;;;3.20;;
73951;SDS011;62304;47.662;18.324;2023-07-29T04:58:21;6.47;;;3.17;;
73951;SDS011;62304;47.662;18.324;2023-07-29T05:01:25;6.50;;;2.90;;
73951;SDS011;62304;47.662;18.324;2023-07-29T05:04:27;5.87;;;2.97;;
73951;SDS011;62304;47.662;18.324;2023-07-29T05:07:31;8.57;;;3.50;;
73951;SDS011;62304;47.662;18.324;2023-07-29T05:10:34;5.97;;;3.00;;
73951;SDS011;62304;47.662;18.324;2023-07-29T05:13:37;6.53;;;2.93;;
73951;SDS011;62304;47.662;18.324;2023-07-29T05:16:41;5.97;;;2.90;;
73951;SDS011;62304;47.662;18.324;2023-07-29T05:19:44;7.07;;;3.00;;
73951;SDS011;62304;47.662;18.324;2023-07-29T05:22:47;6.30;;;3.00;;
73951;SDS011;62304;47.662;18.324;2023-07-29T05:25:50;7.45;;;3.37;;
73951;SDS011;62304;47.662;18.324;2023-07-29T05:28:54;6.80;;;3.27;;
73951;SDS011;62304;47.662;18.324;2023-07-29T05:31:57;6.80;;;3.07;;
73951;SDS011;62304;47.662;18.324;2023-07-29T05:35:00;7.10;;;3.30;;
73951;SDS011;62304;47.662;18.324;2023-07-29T05:38:03;6.60;;;3.22;;
73951;SDS011;62304;47.662;18.324;2023-07-29T05:41:08;8.45;;;3.40;;
73951;SDS011;62304;47.662;18.324;2023-07-29T05:44:12;6.57;;;3.27;;
73951;SDS011;62304;47.662;18.324;2023-07-29T05:47:15;6.97;;;3.43;;
73951;SDS011;62304;47.662;18.324;2023-07-29T05:50:18;5.60;;;2.72;;
73951;SDS011;62304;47.662;18.324;2023-07-29T05:53:21;6.70;;;2.90;;
73951;SDS011;62304;47.662;18.324;2023-07-29T05:56:24;5.35;;;2.50;;
73951;SDS011;62304;47.662;18.324;2023-07-29T05:59:27;6.27;;;3.00;;
73951;SDS011;62304;47.662;18.324;2023-07-29T06:02:31;6.73;;;2.73;;
73951;SDS011;62304;47.662;18.324;2023-07-29T06:05:36;7.78;;;3.20;;
73951;SDS011;62304;47.662;18.324;2023-07-29T06:08:38;8.32;;;3.00;;
73951;SDS011;62304;47.662;18.324;2023-07-29T06:11:42;7.57;;;3.05;;
73951;SDS011;62304;47.662;18.324;2023-07-29T06:14:44;7.70;;;3.30;;
73951;SDS011;62304;47.662;18.324;2023-07-29T06:17:49;5.30;;;2.60;;
73951;SDS011;62304;47.662;18.324;2023-07-29T06:20:52;5.20;;;2.75;;
73951;SDS011;62304;47.662;18.324;2023-07-29T06:23:55;8.18;;;3.03;;
73951;SDS011;62304;47.662;18.324;2023-07-29T06:26:58;5.60;;;2.60;;
73951;SDS011;62304;47.662;18.324;2023-07-29T06:30:02;5.10;;;2.60;;
73951;SDS011;62304;47.662;18.324;2023-07-29T06:33:05;5.03;;;2.60;;
73951;SDS011;62304;47.662;18.324;2023-07-29T06:36:11;6.35;;;2.40;;
73951;SDS011;62304;47.662;18.324;2023-07-29T06:39:14;4.62;;;2.40;;
73951;SDS011;62304;47.662;18.324;2023-07-29T06:42:17;5.65;;;2.90;;
73951;SDS011;62304;47.662;18.324;2023-07-29T06:45:20;5.00;;;2.53;;
73951;SDS011;62304;47.662;18.324;2023-07-29T06:48:23;8.83;;;2.83;;
73951;SDS011;62304;47.662;18.324;2023-07-29T06:51:27;6.00;;;2.50;;
73951;SDS011;62304;47.662;18.324;2023-07-29T06:54:35;5.32;;;2.60;;
73951;SDS011;62304;47.662;18.324;2023-07-29T06:57:39;5.25;;;2.72;;
73951;SDS011;62304;47.662;18.324;2023-07-29T07:00:42;6.03;;;2.17;;
73951;SDS011;62304;47.662;18.324;2023-07-29T07:03:45;5.13;;;2.40;;
73951;SDS011;62304;47.662;18.324;2023-07-29T07:06:48;7.65;;;2.60;;
73951;SDS011;62304;47.662;18.324;2023-07-29T07:09:51;5.32;;;2.08;;
73951;SDS011;62304;47.662;18.324;2023-07-29T07:12:56;4.80;;;2.50;;
73951;SDS011;62304;47.662;18.324;2023-07-29T07:15:59;5.67;;;2.73;;
73951;SDS011;62304;47.662;18.324;2023-07-29T07:19:02;4.53;;;2.70;;
73951;SDS011;62304;47.662;18.324;2023-07-29T07:22:05;6.12;;;2.33;;
73951;SDS011;62304;47.662;18.324;2023-07-29T07:25:08;5.15;;;2.62;;
73951;SDS011;62304;47.662;18.324;2023-07-29T07:28:12;5.37;;;2.45;;
73951;SDS011;62304;47.662;18.324;2023-07-29T07:31:15;5.43;;;2.60;;
73951;SDS011;62304;47.662;18.324;2023-07-29T07:34:21;4.63;;;2.70;;
73951;SDS011;62304;47.662;18.324;2023-07-29T07:37:25;5.60;;;2.80;;
73951;SDS011;62304;47.662;18.324;2023-07-29T07:40:28;3.70;;;1.70;;
73951;SDS011;62304;47.662;18.324;2023-07-29T07:43:31;4.78;;;2.25;;
73951;SDS011;62304;47.662;18.324;2023-07-29T07:46:34;7.43;;;3.67;;
73951;SDS011;62304;47.662;18.324;2023-07-29T07:49:38;4.97;;;2.27;;
73951;SDS011;62304;47.662;18.324;2023-07-29T07:52:41;4.95;;;2.12;;
73951;SDS011;62304;47.662;18.324;2023-07-29T07:55:45;3.90;;;1.85;;
73951;SDS011;62304;47.662;18.324;2023-07-29T07:58:48;4.75;;;1.92;;
73951;SDS011;62304;47.662;18.324;2023-07-29T08:01:51;3.67;;;1.93;;
73951;SDS011;62304;47.662;18.324;2023-07-29T08:04:57;3.63;;;1.80;;
73951;SDS011;62304;47.662;18.324;2023-07-29T08:08:00;3.95;;;2.05;;
73951;SDS011;62304;47.662;18.324;2023-07-29T08:11:03;6.03;;;1.90;;
73951;SDS011;62304;47.662;18.324;2023-07-29T08:14:06;4.60;;;2.05;;
73951;SDS011;62304;47.662;18.324;2023-07-29T08:17:09;3.77;;;2.00;;
73951;SDS011;62304;47.662;18.324;2023-07-29T08:20:11;3.83;;;1.63;;
73951;SDS011;62304;47.662;18.324;2023-07-29T08:23:16;4.55;;;1.80;;
73951;SDS011;62304;47.662;18.324;2023-07-29T08:26:18;3.55;;;1.62;;
73951;SDS011;62304;47.662;18.324;2023-07-29T08:29:21;3.62;;;1.87;;
73951;SDS011;62304;47.662;18.324;2023-07-29T08:32:24;4.47;;;2.27;;
73951;SDS011;62304;47.662;18.324;2023-07-29T08:35:27;4.50;;;1.93;;
73951;SDS011;62304;47.662;18.324;2023-07-29T08:38:30;4.18;;;2.25;;
73951;SDS011;62304;47.662;18.324;2023-07-29T08:45:07;5.32;;;2.30;;
73951;SDS011;62304;47.662;18.324;2023-07-29T08:48:11;3.97;;;2.27;;
73951;SDS011;62304;47.662;18.324;2023-07-29T08:51:18;4.07;;;2.17;;
73951;SDS011;62304;47.662;18.324;2023-07-29T08:54:22;4.03;;;1.67;;
73951;SDS011;62304;47.662;18.324;2023-07-29T08:57:25;4.72;;;2.25;;
73951;SDS011;62304;47.662;18.324;2023-07-29T09:00:30;4.40;;;2.12;;
73951;SDS011;62304;47.662;18.324;2023-07-29T09:03:33;4.83;;;2.27;;
73951;SDS011;62304;47.662;18.324;2023-07-29T09:06:37;4.60;;;2.00;;
73951;SDS011;62304;47.662;18.324;2023-07-29T09:09:41;3.83;;;2.05;;
73951;SDS011;62304;47.662;18.324;2023-07-29T09:12:45;3.70;;;2.00;;
73951;SDS011;62304;47.662;18.324;2023-07-29T09:15:48;3.97;;;2.20;;
73951;SDS011;62304;47.662;18.324;2023-07-29T09:18:51;3.23;;;1.67;;
73951;SDS011;62304;47.662;18.324;2023-07-29T09:21:55;9.67;;;2.17;;
73951;SDS011;62304;47.662;18.324;2023-07-29T09:24:58;5.35;;;2.22;;
73951;SDS011;62304;47.662;18.324;2023-07-29T09:28:01;4.78;;;1.75;;
73951;SDS011;62304;47.662;18.324;2023-07-29T09:31:18;3.60;;;2.10;;
73951;SDS011;62304;47.662;18.324;2023-07-29T09:34:22;4.13;;;1.77;;
73951;SDS011;62304;47.662;18.324;2023-07-29T09:37:25;5.03;;;2.20;;
73951;SDS011;62304;47.662;18.324;2023-07-29T09:40:34;3.72;;;2.10;;
73951;SDS011;62304;47.662;18.324;2023-07-29T09:43:38;5.40;;;1.60;;
73951;SDS011;62304;47.662;18.324;2023-07-29T09:46:45;8.75;;;2.75;;
73951;SDS011;62304;47.662;18.324;2023-07-29T09:49:49;4.60;;;2.17;;
73951;SDS011;62304;47.662;18.324;2023-07-29T09:52:56;3.73;;;2.23;;
73951;SDS011;62304;47.662;18.324;2023-07-29T09:56:02;3.42;;;2.00;;
73951;SDS011;62304;47.662;18.324;2023-07-29T09:59:05;4.10;;;2.10;;
73951;SDS011;62304;47.662;18.324;2023-07-29T10:02:11;4.50;;;2.28;;
73951;SDS011;62304;47.662;18.324;2023-07-29T10:05:18;3.53;;;2.13;;
73951;SDS011;62304;47.662;18.324;2023-07-29T10:08:22;3.47;;;1.80;;
73951;SDS011;62304;47.662;18.324;2023-07-29T10:11:27;3.35;;;1.75;;
73951;SDS011;62304;47.662;18.324;2023-07-29T10:14:32;3.83;;;1.70;;
73951;SDS011;62304;47.662;18.324;2023-07-29T10:17:36;3.85;;;1.85;;
73951;SDS011;62304;47.662;18.324;2023-07-29T10:20:41;3.77;;;2.20;;
73951;SDS011;62304;47.662;18.324;2023-07-29T10:23:46;3.50;;;2.10;;
73951;SDS011;62304;47.662;18.324;2023-07-29T10:26:52;3.78;;;1.70;;
73951;SDS011;62304;47.662;18.324;2023-07-29T10:29:59;4.43;;;2.08;;
73951;SDS011;62304;47.662;18.324;2023-07-29T10:33:03;4.75;;;2.00;;
73951;SDS011;62304;47.662;18.324;2023-07-29T10:36:08;4.43;;;1.70;;
73951;SDS011;62304;47.662;18.324;2023-07-29T10:39:11;4.57;;;2.10;;
73951;SDS011;62304;47.662;18.324;2023-07-29T10:42:15;4.43;;;2.10;;
73951;SDS011;62304;47.662;18.324;2023-07-29T10:45:18;3.70;;;1.95;;
73951;SDS011;62304;47.662;18.324;2023-07-29T10:51:36;7.30;;;2.37;;
73951;SDS011;62304;47.662;18.324;2023-07-29T10:54:49;4.17;;;2.13;;
73951;SDS011;62304;47.662;18.324;2023-07-29T10:58:07;3.60;;;2.10;;
73951;SDS011;62304;47.662;18.324;2023-07-29T11:01:27;4.32;;;2.20;;
73951;SDS011;62304;47.662;18.324;2023-07-29T11:04:31;5.53;;;2.20;;
73951;SDS011;62304;47.662;18.324;2023-07-29T11:07:52;3.50;;;1.77;;
73951;SDS011;62304;47.662;18.324;2023-07-29T11:11:05;3.70;;;2.17;;
73951;SDS011;62304;47.662;18.324;2023-07-29T11:14:10;9.23;;;3.08;;
73951;SDS011;62304;47.662;18.324;2023-07-29T11:17:13;5.62;;;2.17;;
73951;SDS011;62304;47.662;18.324;2023-07-29T11:20:18;5.45;;;2.40;;
73951;SDS011;62304;47.662;18.324;2023-07-29T11:23:35;5.60;;;2.10;;
73951;SDS011;62304;47.662;18.324;2023-07-29T11:26:45;3.90;;;2.30;;
73951;SDS011;62304;47.662;18.324;2023-07-29T11:29:49;4.47;;;2.58;;
73951;SDS011;62304;47.662;18.324;2023-07-29T11:32:53;4.68;;;2.22;;
73951;SDS011;62304;47.662;18.324;2023-07-29T11:35:57;7.95;;;2.17;;
73951;SDS011;62304;47.662;18.324;2023-07-29T11:39:08;4.17;;;2.30;;
73951;SDS011;62304;47.662;18.324;2023-07-29T11:42:12;4.53;;;2.57;;
73951;SDS011;62304;47.662;18.324;2023-07-29T11:45:17;4.70;;;2.12;;
73951;SDS011;62304;47.662;18.324;2023-07-29T11:48:27;4.43;;;2.30;;
73951;SDS011;62304;47.662;18.324;2023-07-29T11:51:31;5.12;;;2.20;;
73951;SDS011;62304;47.662;18.324;2023-07-29T11:54:35;5.73;;;2.60;;
73951;SDS011;62304;47.662;18.324;2023-07-29T11:57:41;5.10;;;2.60;;
73951;SDS011;62304;47.662;18.324;2023-07-29T12:00:45;3.87;;;2.12;;
73951;SDS011;62304;47.662;18.324;2023-07-29T12:03:49;4.32;;;2.17;;
73951;SDS011;62304;47.662;18.324;2023-07-29T12:06:53;6.60;;;2.47;;
73951;SDS011;62304;47.662;18.324;2023-07-29T12:09:56;5.27;;;2.40;;
73951;SDS011;62304;47.662;18.324;2023-07-29T12:13:00;4.80;;;2.33;;
73951;SDS011;62304;47.662;18.324;2023-07-29T12:16:05;3.95;;;2.30;;
73951;SDS011;62304;47.662;18.324;2023-07-29T12:19:08;6.07;;;2.70;;
73951;SDS011;62304;47.662;18.324;2023-07-29T12:22:17;5.03;;;2.25;;
73951;SDS011;62304;47.662;18.324;2023-07-29T12:25:21;5.57;;;2.40;;
73951;SDS011;62304;47.662;18.324;2023-07-29T12:28:25;4.87;;;2.43;;
73951;SDS011;62304;47.662;18.324;2023-07-29T12:31:32;7.07;;;3.37;;
73951;SDS011;62304;47.662;18.324;2023-07-29T12:34:36;6.75;;;4.25;;
73951;SDS011;62304;47.662;18.324;2023-07-29T12:37:41;4.22;;;2.12;;
73951;SDS011;62304;47.662;18.324;2023-07-29T12:40:45;4.57;;;2.20;;
73951;SDS011;62304;47.662;18.324;2023-07-29T12:43:48;4.70;;;2.73;;
73951;SDS011;62304;47.662;18.324;2023-07-29T12:46:51;5.45;;;2.03;;
73951;SDS011;62304;47.662;18.324;2023-07-29T12:49:54;5.95;;;2.10;;
73951;SDS011;62304;47.662;18.324;2023-07-29T12:52:58;3.70;;;2.20;;
73951;SDS011;62304;47.662;18.324;2023-07-29T12:56:01;3.97;;;2.50;;
73951;SDS011;62304;47.662;18.324;2023-07-29T12:59:05;3.80;;;2.30;;
73951;SDS011;62304;47.662;18.324;2023-07-29T13:02:07;5.60;;;2.08;;
73951;SDS011;62304;47.662;18.324;2023-07-29T13:05:12;4.55;;;2.20;;
73951;SDS011;62304;47.662;18.324;2023-07-29T13:08:15;3.92;;;2.30;;
73951;SDS011;62304;47.662;18.324;2023-07-29T13:11:18;4.37;;;2.30;;
73951;SDS011;62304;47.662;18.324;2023-07-29T13:14:21;5.57;;;2.13;;
73951;SDS011;62304;47.662;18.324;2023-07-29T13:17:24;4.00;;;2.10;;
73951;SDS011;62304;47.662;18.324;2023-07-29T13:20:27;6.07;;;2.60;;
73951;SDS011;62304;47.662;18.324;2023-07-29T13:23:30;6.57;;;2.20;;
73951;SDS011;62304;47.662;18.324;2023-07-29T13:26:33;4.63;;;2.70;;
73951;SDS011;62304;47.662;18.324;2023-07-29T13:29:37;4.77;;;2.17;;
73951;SDS011;62304;47.662;18.324;2023-07-29T13:32:39;4.07;;;2.20;;
73951;SDS011;62304;47.662;18.324;2023-07-29T13:35:45;5.50;;;2.00;;
73951;SDS011;62304;47.662;18.324;2023-07-29T13:38:48;4.32;;;2.20;;
73951;SDS011;62304;47.662;18.324;2023-07-29T13:41:51;4.20;;;2.50;;
73951;SDS011;62304;47.662;18.324;2023-07-29T13:44:54;3.83;;;2.30;;
73951;SDS011;62304;47.662;18.324;2023-07-29T13:47:57;4.00;;;2.40;;
73951;SDS011;62304;47.662;18.324;2023-07-29T13:51:00;3.95;;;2.50;;
73951;SDS011;62304;47.662;18.324;2023-07-29T13:54:03;4.30;;;1.85;;
73951;SDS011;62304;47.662;18.324;2023-07-29T13:57:06;3.57;;;1.83;;
73951;SDS011;62304;47.662;18.324;2023-07-29T14:00:09;5.50;;;1.80;;
73951;SDS011;62304;47.662;18.324;2023-07-29T14:03:12;3.72;;;1.90;;
73951;SDS011;62304;47.662;18.324;2023-07-29T14:06:16;3.55;;;1.80;;
73951;SDS011;62304;47.662;18.324;2023-07-29T14:09:20;4.65;;;2.03;;
73951;SDS011;62304;47.662;18.324;2023-07-29T14:12:23;4.70;;;2.43;;
73951;SDS011;62304;47.662;18.324;2023-07-29T14:15:25;4.20;;;2.23;;
73951;SDS011;62304;47.662;18.324;2023-07-29T14:18:31;4.70;;;2.12;;
73951;SDS011;62304;47.662;18.324;2023-07-29T14:21:34;5.85;;;2.15;;
73951;SDS011;62304;47.662;18.324;2023-07-29T14:24:37;5.18;;;2.33;;
73951;SDS011;62304;47.662;18.324;2023-07-29T14:27:40;5.03;;;2.10;;
73951;SDS011;62304;47.662;18.324;2023-07-29T14:30:43;3.90;;;2.00;;
73951;SDS011;62304;47.662;18.324;2023-07-29T14:33:46;4.35;;;2.05;;
73951;SDS011;62304;47.662;18.324;2023-07-29T14:36:50;3.45;;;1.70;;
73951;SDS011;62304;47.662;18.324;2023-07-29T14:39:52;3.95;;;2.20;;
73951;SDS011;62304;47.662;18.324;2023-07-29T14:42:56;5.13;;;2.10;;
73951;SDS011;62304;47.662;18.324;2023-07-29T14:45:59;6.53;;;1.83;;
73951;SDS011;62304;47.662;18.324;2023-07-29T14:49:03;4.90;;;2.30;;
73951;SDS011;62304;47.662;18.324;2023-07-29T14:52:06;5.45;;;1.90;;
73951;SDS011;62304;47.662;18.324;2023-07-29T14:55:09;5.68;;;1.70;;
73951;SDS011;62304;47.662;18.324;2023-07-29T14:58:13;3.90;;;1.87;;
73951;SDS011;62304;47.662;18.324;2023-07-29T15:01:16;4.30;;;1.90;;
73951;SDS011;62304;47.662;18.324;2023-07-29T15:04:19;5.57;;;1.62;;
73951;SDS011;62304;47.662;18.324;2023-07-29T15:07:22;6.72;;;1.60;;
73951;SDS011;62304;47.662;18.324;2023-07-29T15:10:25;4.40;;;2.12;;
73951;SDS011;62304;47.662;18.324;2023-07-29T15:13:28;3.53;;;2.00;;
73951;SDS011;62304;47.662;18.324;2023-07-29T15:16:32;5.27;;;2.10;;
73951;SDS011;62304;47.662;18.324;2023-07-29T15:19:40;4.22;;;1.90;;
73951;SDS011;62304;47.662;18.324;2023-07-29T15:22:43;6.35;;;1.80;;
73951;SDS011;62304;47.662;18.324;2023-07-29T15:25:47;4.30;;;1.90;;
73951;SDS011;62304;47.662;18.324;2023-07-29T15:28:51;4.20;;;2.37;;
73951;SDS011;62304;47.662;18.324;2023-07-29T15:31:55;4.80;;;2.10;;
73951;SDS011;62304;47.662;18.324;2023-07-29T15:34:57;3.83;;;2.00;;
73951;SDS011;62304;47.662;18.324;2023-07-29T15:38:01;5.10;;;1.90;;
73951;SDS011;62304;47.662;18.324;2023-07-29T15:41:04;6.15;;;2.40;;
73951;SDS011;62304;47.662;18.324;2023-07-29T15:44:07;7.57;;;1.40;;
73951;SDS011;62304;47.662;18.324;2023-07-29T15:47:09;7.23;;;1.37;;
73951;SDS011;62304;47.662;18.324;2023-07-29T15:50:15;3.55;;;0.95;;
73951;SDS011;62304;47.662;18.324;2023-07-29T15:53:18;3.65;;;1.00;;
73951;SDS011;62304;47.662;18.324;2023-07-29T15:56:22;4.50;;;1.10;;
73951;SDS011;62304;47.662;18.324;2023-07-29T15:59:24;3.10;;;0.90;;
73951;SDS011;62304;47.662;18.324;2023-07-29T16:02:29;4.77;;;0.97;;
73951;SDS011;62304;47.662;18.324;2023-07-29T16:05:32;6.45;;;1.12;;
73951;SDS011;62304;47.662;18.324;2023-07-29T16:08:35;3.30;;;1.00;;
73951;SDS011;62304;47.662;18.324;2023-07-29T16:11:38;3.95;;;1.00;;
73951;SDS011;62304;47.662;18.324;2023-07-29T16:14:41;3.57;;;1.10;;
73951;SDS011;62304;47.662;18.324;2023-07-29T16:17:44;3.77;;;1.10;;
73951;SDS011;62304;47.662;18.324;2023-07-29T16:20:52;4.05;;;1.30;;
73951;SDS011;62304;47.662;18.324;2023-07-29T16:23:55;3.40;;;1.23;;
73951;SDS011;62304;47.662;18.324;2023-07-29T16:26:58;3.10;;;1.25;;
73951;SDS011;62304;47.662;18.324;2023-07-29T16:30:02;4.70;;;1.17;;
73951;SDS011;62304;47.662;18.324;2023-07-29T16:33:06;4.40;;;1.47;;
73951;SDS011;62304;47.662;18.324;2023-07-29T16:36:09;8.23;;;1.55;;
73951;SDS011;62304;47.662;18.324;2023-07-29T16:39:12;4.55;;;1.33;;
73951;SDS011;62304;47.662;18.324;2023-07-29T16:42:15;8.38;;;1.50;;
73951;SDS011;62304;47.662;18.324;2023-07-29T16:45:18;4.83;;;1.40;;
73951;SDS011;62304;47.662;18.324;2023-07-29T16:48:22;6.33;;;1.53;;
73951;SDS011;62304;47.662;18.324;2023-07-29T16:51:25;4.37;;;1.55;;
73951;SDS011;62304;47.662;18.324;2023-07-29T16:54:28;4.78;;;1.70;;
73951;SDS011;62304;47.662;18.324;2023-07-29T16:57:31;5.50;;;1.52;;
73951;SDS011;62304;47.662;18.324;2023-07-29T17:00:35;4.33;;;1.50;;
73951;SDS011;62304;47.662;18.324;2023-07-29T17:03:38;6.07;;;1.47;;
73951;SDS011;62304;47.662;18.324;2023-07-29T17:06:41;5.80;;;1.45;;
73951;SDS011;62304;47.662;18.324;2023-07-29T17:09:44;5.80;;;1.40;;
73951;SDS011;62304;47.662;18.324;2023-07-29T17:12:48;4.45;;;1.80;;
73951;SDS011;62304;47.662;18.324;2023-07-29T17:15:51;8.63;;;3.13;;
73951;SDS011;62304;47.662;18.324;2023-07-29T17:18:56;7.23;;;4.03;;
73951;SDS011;62304;47.662;18.324;2023-07-29T17:21:59;5.25;;;2.00;;
73951;SDS011;62304;47.662;18.324;2023-07-29T17:25:02;4.32;;;1.60;;
73951;SDS011;62304;47.662;18.324;2023-07-29T17:28:05;5.32;;;1.40;;
73951;SDS011;62304;47.662;18.324;2023-07-29T17:31:09;3.77;;;1.57;;
73951;SDS011;62304;47.662;18.324;2023-07-29T17:34:13;3.10;;;1.00;;
73951;SDS011;62304;47.662;18.324;2023-07-29T17:37:16;3.80;;;1.30;;
73951;SDS011;62304;47.662;18.324;2023-07-29T17:40:19;3.22;;;1.05;;
73951;SDS011;62304;47.662;18.324;2023-07-29T17:43:23;4.87;;;1.85;;
73951;SDS011;62304;47.662;18.324;2023-07-29T17:46:26;6.00;;;1.43;;
73951;SDS011;62304;47.662;18.324;2023-07-29T17:49:29;4.33;;;1.37;;
73951;SDS011;62304;47.662;18.324;2023-07-29T17:52:32;3.53;;;1.23;;
73951;SDS011;62304;47.662;18.324;2023-07-29T17:55:36;4.62;;;1.37;;
73951;SDS011;62304;47.662;18.324;2023-07-29T17:58:40;4.15;;;1.62;;
73951;SDS011;62304;47.662;18.324;2023-07-29T18:01:43;3.50;;;1.37;;
73951;SDS011;62304;47.662;18.324;2023-07-29T18:04:48;4.10;;;1.53;;
73951;SDS011;62304;47.662;18.324;2023-07-29T18:07:51;5.50;;;1.27;;
73951;SDS011;62304;47.662;18.324;2023-07-29T18:10:54;3.35;;;1.20;;
73951;SDS011;62304;47.662;18.324;2023-07-29T18:13:58;3.40;;;1.23;;
73951;SDS011;62304;47.662;18.324;2023-07-29T18:17:01;3.50;;;1.20;;
73951;SDS011;62304;47.662;18.324;2023-07-29T18:20:04;4.07;;;1.30;;
73951;SDS011;62304;47.662;18.324;2023-07-29T18:23:09;4.57;;;1.60;;
73951;SDS011;62304;47.662;18.324;2023-07-29T18:26:13;7.68;;;1.90;;
73951;SDS011;62304;47.662;18.324;2023-07-29T18:29:16;5.55;;;1.90;;
73951;SDS011;62304;47.662;18.324;2023-07-29T18:32:19;6.53;;;1.70;;
73951;SDS011;62304;47.662;18.324;2023-07-29T18:35:23;4.90;;;2.00;;
73951;SDS011;62304;47.662;18.324;2023-07-29T18:38:26;5.55;;;1.70;;